Flight Track Log - Related Links

Times and Time Zones

All times are in EDT time to prevent confusion due to time zone crossing. See the N87CA flight status page for this flight to view local times or setup timezone preferences in your user account.

Time Position Orientation Groundspeed Altitude Reporting Facility
EDT Latitude Longitude Course Direction KTS MPH feet Rate Location/Type
Thu 09:29:49 AM 33.8333 -84.5667 325° Northwest 146 168 2,900  Level Atlanta TRACON
Thu 09:30:43 AM 33.8667 -84.5667 360° North 133 153 3,900 1,053 Climbing Atlanta TRACON
Thu 09:31:43 AM 33.9000 -84.5833 337° Northwest 128 147 4,900 950 Climbing Atlanta TRACON
Thu 09:32:43 AM 33.9333 -84.5833 360° North 129 148 5,800 857 Climbing Atlanta TRACON
Thu 09:33:49 AM 33.9667 -84.6000 337° Northwest 132 152 6,700 811 Climbing Atlanta TRACON
Thu 09:35:11 AM 34.0206 -84.6053 355° North 153 176 7,800 549 Climbing Atlanta Center
Thu 09:36:11 AM 34.0581 -84.6106 353° North 142 163 8,000 100 Climbing Atlanta Center
Thu 09:37:11 AM 34.1061 -84.6183 352° North 156 180 8,000 -50 Level Atlanta Center
Thu 09:38:11 AM 34.1581 -84.6261 353° North 177 204 7,900 -50 Descending Atlanta Center
Thu 09:39:11 AM 34.2039 -84.6467 340° North 177 204 7,900  Level Atlanta Center
Thu 09:40:11 AM 34.2456 -84.6797 327° Northwest 177 204 7,900 50 Level Atlanta Center
Thu 09:41:11 AM 34.2892 -84.7100 330° Northwest 182 209 8,000  Climbing Atlanta Center
Thu 09:42:11 AM 34.3056 -84.7656 290° West 176 203 7,900 -50 Descending Atlanta Center
Thu 09:43:11 AM 34.3261 -84.8286 292° West 176 203 7,900  Level Atlanta Center
Thu 09:44:11 AM 34.3444 -84.8842 292° West 181 208 7,900  Level Atlanta Center
Thu 09:45:11 AM 34.3608 -84.9397 290° West 181 208 7,900  Level Atlanta Center
Thu 09:46:11 AM 34.3792 -85.0003 290° West 191 220 7,900  Level Atlanta Center
Thu 09:47:11 AM 34.3975 -85.0583 291° West 191 220 7,900 50 Level Atlanta Center
Thu 09:48:11 AM 34.4156 -85.1164 291° West 191 220 8,000 -100 Climbing Atlanta Center
Thu 09:49:11 AM 34.4300 -85.1619 291° West 191 220 7,700 -300 Descending Atlanta Center
Thu 09:50:11 AM 34.4500 -85.2303 290° West 191 220 7,400 -350 Descending Atlanta Center
Thu 09:51:11 AM 34.4703 -85.2961 291° West 191 220 7,000 -400 Descending Atlanta Center
Thu 09:52:11 AM 34.4906 -85.3594 291° West 196 226 6,600 -500 Descending Atlanta Center
Thu 09:53:11 AM 34.5108 -85.4228 291° West 201 231 6,000 -600 Descending Atlanta Center
Thu 09:54:11 AM 34.5328 -85.4886 292° West 212 244 5,400 -450 Descending Atlanta Center
Thu 09:55:11 AM 34.5614 -85.5447 302° West 206 237 5,100 -500 Descending Atlanta Center
Thu 09:56:11 AM 34.6025 -85.5908 317° Northwest 201 231 4,400 -500 Descending Atlanta Center
Thu 09:57:11 AM 34.6481 -85.6294 325° Northwest 196 226 4,100 -150 Descending Atlanta Center
Thu 09:58:11 AM 34.6872 -85.6656 323° Northwest 188 216 4,100  Level Atlanta Center
Thu 09:59:11 AM 34.7264 -85.6992 325° Northwest 177 204 4,100  Level Atlanta Center
Thu 10:00:11 AM 34.7636 -85.7353 321° Northwest 177 204 4,100  Level Atlanta Center
Thu 10:01:11 AM 34.7964 -85.7664 322° Northwest 172 198 4,100 -50 Level Atlanta Center
Thu 10:02:11 AM 34.8314 -85.8000 322° Northwest 155 178 4,000 -400 Descending Atlanta Center
Thu 10:04:11 AM 34.8239 -85.8808 264° West 158 182 2,900 -467 Descending Atlanta Center
Thu 10:05:11 AM 34.7922 -85.9131 220° Southwest 152 175 2,600 -200 Descending Atlanta Center
Thu 10:07:11 AM 34.7350 -85.9775 223° Southwest 140 161 2,300 -150 Descending Atlanta Center

Login

Don't have an account? Register now (free) for customized features, flight alerts, and more!